createdAt,value
2019-05-10T00:01:07.552Z,46.30
2019-05-10T00:03:33.781Z,46.40
2019-05-10T00:06:00.009Z,46.30
2019-05-10T00:08:26.237Z,46.30
2019-05-10T00:10:52.468Z,46.20
2019-05-10T00:13:18.691Z,46.30
2019-05-10T00:15:44.921Z,46.40
2019-05-10T00:18:11.165Z,46.40
2019-05-10T00:20:37.388Z,46.40
2019-05-10T00:23:03.614Z,46.40
2019-05-10T00:25:29.834Z,46.30
2019-05-10T00:27:56.083Z,46.40
2019-05-10T00:30:22.705Z,46.30
2019-05-10T00:32:48.950Z,46.30
2019-05-10T00:35:15.185Z,46.40
2019-05-10T00:37:41.406Z,46.30
2019-05-10T00:40:07.580Z,46.40
2019-05-10T00:42:33.800Z,46.30
2019-05-10T00:45:00.082Z,46.40
2019-05-10T00:47:26.305Z,46.30
2019-05-10T00:49:52.533Z,46.30
2019-05-10T00:52:18.761Z,46.20
2019-05-10T00:54:44.990Z,46.30
2019-05-10T00:57:11.226Z,46.30
2019-05-10T00:59:37.450Z,46.20
2019-05-10T01:02:03.687Z,46.20
2019-05-10T01:04:29.912Z,46.20
2019-05-10T01:06:56.956Z,46.30
2019-05-10T01:09:23.180Z,46.20
2019-05-10T01:11:49.422Z,46.10
2019-05-10T01:14:15.646Z,46.20
2019-05-10T01:16:41.863Z,46.20
2019-05-10T01:19:08.102Z,46.20
2019-05-10T01:21:34.327Z,46.20
2019-05-10T01:24:00.573Z,46.30
2019-05-10T01:26:26.780Z,46.30
2019-05-10T01:28:53.010Z,46.30
2019-05-10T01:31:19.183Z,46.30
2019-05-10T01:33:45.469Z,46.20
2019-05-10T01:36:11.697Z,46.20
2019-05-10T01:38:37.917Z,46.20
2019-05-10T01:41:04.149Z,46.10
2019-05-10T01:43:30.378Z,46.10
2019-05-10T01:45:56.635Z,46.10
2019-05-10T01:48:22.840Z,46.20
2019-05-10T01:50:49.065Z,46.20
2019-05-10T01:53:15.291Z,46.30
2019-05-10T01:55:51.689Z,46.10
2019-05-10T01:58:07.762Z,46.10
2019-05-10T02:00:33.987Z,45.90
2019-05-10T02:03:00.209Z,46.20
2019-05-10T02:05:26.433Z,46.20
2019-05-10T02:07:52.665Z,46.20
2019-05-10T02:10:18.889Z,46.20
2019-05-10T02:12:45.116Z,46.20
2019-05-10T02:15:11.365Z,46.30
2019-05-10T02:17:37.578Z,46.20
2019-05-10T02:20:03.806Z,46.20
2019-05-10T02:22:30.039Z,46.30
2019-05-10T02:24:56.190Z,46.20
2019-05-10T02:27:22.494Z,46.30
2019-05-10T02:29:48.717Z,46.20
2019-05-10T02:32:14.941Z,46.30
2019-05-10T02:34:41.179Z,46.30
2019-05-10T02:37:07.816Z,46.30
2019-05-10T02:39:34.050Z,46.30
2019-05-10T02:42:00.277Z,46.30
2019-05-10T02:44:26.528Z,46.20
2019-05-10T02:46:52.807Z,46.20
2019-05-10T02:49:18.961Z,46.20
2019-05-10T02:51:45.200Z,46.20
2019-05-10T02:54:11.414Z,46.30
2019-05-10T02:56:37.656Z,46.20
2019-05-10T02:59:03.872Z,46.10
2019-05-10T03:01:30.106Z,46.20
2019-05-10T03:03:56.328Z,46.10
2019-05-10T03:06:22.573Z,46.10
2019-05-10T03:08:48.786Z,46.10
2019-05-10T03:11:15.015Z,46.20
2019-05-10T03:13:41.241Z,46.30
2019-05-10T03:16:07.473Z,46.20
2019-05-10T03:18:33.705Z,46.20
2019-05-10T03:20:59.942Z,46.10
2019-05-10T03:23:26.565Z,46.10
2019-05-10T03:25:52.796Z,46.20
2019-05-10T03:28:19.035Z,46.20
2019-05-10T03:30:45.662Z,46.20
2019-05-10T03:33:11.890Z,46.20
2019-05-10T03:35:38.137Z,46.20
2019-05-10T03:38:05.577Z,46.10
2019-05-10T03:40:31.805Z,46.10
2019-05-10T03:42:58.047Z,46.10
2019-05-10T03:45:24.264Z,46.20
2019-05-10T03:47:50.893Z,46.30
2019-05-10T03:50:17.128Z,46.20
2019-05-10T03:52:43.358Z,46.20
2019-05-10T03:55:09.517Z,46.20
2019-05-10T03:57:35.688Z,46.30
2019-05-10T04:00:02.046Z,46.20
2019-05-10T04:02:28.326Z,46.30
2019-05-10T04:04:54.496Z,46.90
2019-05-10T04:07:20.724Z,46.20
2019-05-10T04:09:46.956Z,46.20
2019-05-10T04:12:13.177Z,46.30
2019-05-10T04:14:39.410Z,46.90
2019-05-10T04:17:05.650Z,46.20
2019-05-10T04:19:31.877Z,46.20
2019-05-10T04:21:58.106Z,46.20
2019-05-10T04:24:24.332Z,46.20
2019-05-10T04:26:50.569Z,46.20
2019-05-10T04:29:16.787Z,46.20
2019-05-10T04:31:43.023Z,46.20
2019-05-10T04:34:09.252Z,46.20
2019-05-10T04:36:35.488Z,46.20
2019-05-10T04:39:02.114Z,46.20
2019-05-10T04:41:28.434Z,46.20
2019-05-10T04:43:54.981Z,46.30
2019-05-10T04:46:21.210Z,46.20
2019-05-10T04:48:47.436Z,46.30
2019-05-10T04:51:13.664Z,46.20
2019-05-10T04:53:39.887Z,46.20
2019-05-10T04:56:06.125Z,46.20
2019-05-10T04:58:32.346Z,46.20
2019-05-10T05:00:58.565Z,46.20
2019-05-10T05:03:24.813Z,46.20
2019-05-10T05:05:51.038Z,46.20
2019-05-10T05:08:17.259Z,46.30
2019-05-10T05:10:43.490Z,46.30
2019-05-10T05:13:09.740Z,46.30
2019-05-10T05:15:35.956Z,46.20
2019-05-10T05:18:02.170Z,46.30
2019-05-10T05:20:28.405Z,46.30
2019-05-10T05:22:54.634Z,46.30
2019-05-10T05:25:22.191Z,46.40
2019-05-10T05:27:47.098Z,46.40
2019-05-10T05:30:14.539Z,46.40
2019-05-10T05:32:44.239Z,46.40
2019-05-10T05:35:06.982Z,46.40
2019-05-10T05:37:33.228Z,46.30
2019-05-10T05:39:59.460Z,47.00
2019-05-10T05:42:27.900Z,46.30
2019-05-10T05:44:51.918Z,46.30
2019-05-10T05:47:18.555Z,46.40
2019-05-10T05:49:44.781Z,46.30
2019-05-10T05:52:11.027Z,46.40
2019-05-10T05:54:37.177Z,46.40
2019-05-10T05:57:03.343Z,46.40
2019-05-10T05:59:29.702Z,46.50
2019-05-10T06:02:00.621Z,47.20
2019-05-10T06:04:22.157Z,46.40
2019-05-10T06:06:48.386Z,46.20
2019-05-10T06:09:14.619Z,46.50
2019-05-10T06:11:40.838Z,46.50
2019-05-10T06:14:10.544Z,47.20
2019-05-10T06:16:33.286Z,46.50
2019-05-10T06:18:59.525Z,46.50
2019-05-10T06:21:26.843Z,46.50
2019-05-10T06:23:51.987Z,46.60
2019-05-10T06:26:26.223Z,46.50
2019-05-10T06:28:58.367Z,46.50
2019-05-10T06:31:10.664Z,46.60
2019-05-10T06:33:39.632Z,47.30
2019-05-10T06:36:03.134Z,46.60
2019-05-10T06:38:29.350Z,46.70
2019-05-10T06:40:55.587Z,46.60
2019-05-10T06:43:21.818Z,46.50
2019-05-10T06:45:52.390Z,46.60
2019-05-10T06:48:14.269Z,46.50
2019-05-10T06:50:40.513Z,46.60
2019-05-10T06:53:09.624Z,46.50
2019-05-10T06:55:33.371Z,46.60
2019-05-10T06:58:00.887Z,46.60
2019-05-10T07:00:25.812Z,46.80
2019-05-10T07:02:52.042Z,46.70
2019-05-10T07:05:18.272Z,46.60
2019-05-10T07:07:45.573Z,46.60
2019-05-10T07:10:18.584Z,46.70
2019-05-10T07:12:36.990Z,46.80
2019-05-10T07:15:05.293Z,46.80
2019-05-10T07:17:29.415Z,46.80
2019-05-10T07:19:55.646Z,46.80
2019-05-10T07:22:26.680Z,46.90
2019-05-10T07:24:48.129Z,46.90
2019-05-10T07:27:14.332Z,46.90
2019-05-10T07:29:43.450Z,46.90
2019-05-10T07:32:06.795Z,46.80
2019-05-10T07:34:33.029Z,46.80
2019-05-10T07:37:01.832Z,46.80
2019-05-10T07:39:25.482Z,47.00
2019-05-10T07:41:51.666Z,46.90
2019-05-10T07:44:18.305Z,46.90
2019-05-10T07:46:47.080Z,46.90
2019-05-10T07:49:10.842Z,47.00
2019-05-10T07:51:37.024Z,47.00
2019-05-10T07:54:05.086Z,46.90
2019-05-10T07:56:29.912Z,46.80
2019-05-10T07:58:56.131Z,47.00
2019-05-10T08:01:32.285Z,47.00
2019-05-10T08:03:52.407Z,47.00
2019-05-10T08:06:15.666Z,46.90
2019-05-10T08:08:41.470Z,46.80
2019-05-10T08:11:08.594Z,47.10
2019-05-10T08:13:33.904Z,47.00
2019-05-10T08:16:00.136Z,46.90
2019-05-10T08:18:26.363Z,46.90
2019-05-10T08:20:58.152Z,46.90
2019-05-10T08:23:23.909Z,46.80
2019-05-10T08:25:47.188Z,47.50
2019-05-10T08:28:12.711Z,46.80
2019-05-10T08:30:49.992Z,46.80
2019-05-10T08:33:09.325Z,46.80
2019-05-10T08:35:30.372Z,46.80
2019-05-10T08:37:56.592Z,46.70
2019-05-10T08:40:25.932Z,46.70
2019-05-10T08:43:00.197Z,46.70
2019-05-10T08:45:15.285Z,46.80
2019-05-10T08:47:42.736Z,46.70
2019-05-10T08:50:26.441Z,46.80
2019-05-10T08:52:34.146Z,46.80
2019-05-10T08:55:02.504Z,46.80
2019-05-10T09:00:06.624Z,46.80
2019-05-10T09:02:29.059Z,46.80
2019-05-10T09:04:52.745Z,46.80
2019-05-10T09:07:16.679Z,46.80
2019-05-10T09:09:49.591Z,46.80
2019-05-10T09:12:09.317Z,46.90
2019-05-10T09:14:35.769Z,46.80
2019-05-10T09:17:04.370Z,46.90
2019-05-10T09:19:39.242Z,46.80
2019-05-10T09:21:55.134Z,46.80
2019-05-10T09:24:22.847Z,46.80
2019-05-10T09:26:54.889Z,46.70
2019-05-10T09:29:13.557Z,46.70
2019-05-10T09:31:46.068Z,47.40
2019-05-10T09:34:05.997Z,46.70
2019-05-10T09:36:36.224Z,46.60
2019-05-10T09:38:58.444Z,46.70
2019-05-10T09:41:27.698Z,46.70
2019-05-10T09:43:53.594Z,46.70
2019-05-10T09:46:17.545Z,46.60
2019-05-10T09:48:45.007Z,46.60
2019-05-10T09:51:13.294Z,46.50
2019-05-10T09:53:38.386Z,46.50
2019-05-10T09:56:03.317Z,46.50
2019-05-10T09:58:28.751Z,46.50
2019-05-10T10:01:12.767Z,46.50
2019-05-10T10:03:21.144Z,46.50
2019-05-10T10:05:48.278Z,46.40
2019-05-10T10:08:13.605Z,46.50
2019-05-10T10:10:39.838Z,46.50
2019-05-10T10:13:12.023Z,46.40
2019-05-10T10:15:34.256Z,46.30
2019-05-10T10:17:58.524Z,46.20
2019-05-10T10:20:24.741Z,46.20
2019-05-10T10:22:54.483Z,46.30
2019-05-10T10:25:17.744Z,46.00
2019-05-10T10:27:43.433Z,46.10
2019-05-10T10:30:12.621Z,46.10
2019-05-10T10:32:37.634Z,46.10
2019-05-10T10:35:02.126Z,46.10
2019-05-10T10:37:31.217Z,46.10
2019-05-10T10:39:59.655Z,46.00
2019-05-10T10:42:20.802Z,45.90
2019-05-10T10:44:48.305Z,45.90
2019-05-10T10:47:13.261Z,45.80
2019-05-10T10:49:39.481Z,45.90
2019-05-10T10:52:10.511Z,45.70
2019-05-10T10:54:36.529Z,45.70
2019-05-10T10:56:59.599Z,45.80
2019-05-10T10:59:24.802Z,45.70
2019-05-10T11:02:23.317Z,45.60
2019-05-10T11:04:17.268Z,45.60
2019-05-10T11:06:43.492Z,45.50
2019-05-10T11:09:09.715Z,45.60
2019-05-10T11:11:44.228Z,45.70
2019-05-10T11:14:07.269Z,45.50
2019-05-10T11:16:28.398Z,45.50
2019-05-10T11:18:54.624Z,45.40
2019-05-10T11:21:23.397Z,45.30
2019-05-10T11:23:47.108Z,45.40
2019-05-10T11:26:13.313Z,45.50
2019-05-10T11:28:43.971Z,45.40
2019-05-10T11:31:05.759Z,45.50
2019-05-10T11:33:33.707Z,45.30
2019-05-10T11:36:04.089Z,45.40
2019-05-10T11:38:24.861Z,45.20
2019-05-10T11:40:51.094Z,45.30
2019-05-10T11:43:22.175Z,45.40
2019-05-10T11:45:44.226Z,45.30
2019-05-10T11:48:10.824Z,45.40
2019-05-10T11:50:36.389Z,45.50
2019-05-10T11:53:06.821Z,45.30
2019-05-10T11:55:30.983Z,45.30
2019-05-10T11:58:02.951Z,45.00
2019-05-10T12:00:29.164Z,45.30
2019-05-10T12:03:03.334Z,45.30
2019-05-10T12:05:20.038Z,45.30
2019-05-10T12:07:44.987Z,45.30
2019-05-10T12:10:16.959Z,45.10
2019-05-10T12:14:58.629Z,45.10
2019-05-10T12:17:24.905Z,45.10
2019-05-10T12:19:56.207Z,45.10
2019-05-10T12:22:21.492Z,45.20
2019-05-10T12:24:53.757Z,45.10
2019-05-10T12:26:06.388Z,45.10
2019-05-10T12:27:22.437Z,45.20
2019-05-10T12:29:37.281Z,45.10
2019-05-10T12:32:03.509Z,45.30
2019-05-10T12:34:31.152Z,45.20
2019-05-10T12:36:57.518Z,45.20
2019-05-10T12:39:22.194Z,45.90
2019-05-10T12:41:49.895Z,45.20
2019-05-10T12:44:14.654Z,45.20
2019-05-10T12:46:42.249Z,44.90
2019-05-10T12:49:07.108Z,45.30
2019-05-10T12:51:33.347Z,45.20
2019-05-10T12:53:59.564Z,45.20
2019-05-10T12:56:25.854Z,45.20
2019-05-10T12:58:57.509Z,45.20
2019-05-10T13:01:18.259Z,45.20
2019-05-10T13:03:44.481Z,45.20
2019-05-10T13:06:14.404Z,45.20
2019-05-10T13:08:40.628Z,45.20
2019-05-10T13:11:06.853Z,45.20
2019-05-10T13:13:33.107Z,45.30
2019-05-10T13:16:03.581Z,45.30
2019-05-10T13:18:49.198Z,45.30
2019-05-10T13:20:52.168Z,45.30
2019-05-10T13:23:18.534Z,45.30
2019-05-10T13:25:44.655Z,45.30
2019-05-10T13:28:11.711Z,45.30
2019-05-10T13:30:37.093Z,45.30
2019-05-10T13:33:03.300Z,45.30
2019-05-10T13:35:29.558Z,45.30
2019-05-10T13:37:56.975Z,45.30
2019-05-10T13:40:21.997Z,45.30
2019-05-10T13:42:48.225Z,45.30
2019-05-10T13:45:14.454Z,45.30
2019-05-10T13:47:40.676Z,45.30
2019-05-10T13:50:06.927Z,45.30
2019-05-10T13:52:38.054Z,45.30
2019-05-10T13:54:59.383Z,45.30
2019-05-10T13:57:26.012Z,45.00
2019-05-10T13:59:55.250Z,45.40
2019-05-10T14:02:23.012Z,45.30
2019-05-10T14:04:44.702Z,45.30
2019-05-10T14:07:10.915Z,45.20
2019-05-10T14:09:37.148Z,45.10
2019-05-10T14:12:03.392Z,45.10
2019-05-10T14:14:29.621Z,45.10
2019-05-10T14:16:55.832Z,45.20
2019-05-10T14:19:23.368Z,45.20
2019-05-10T14:21:48.304Z,45.20
2019-05-10T14:24:15.631Z,45.20
2019-05-10T14:26:40.745Z,45.20
2019-05-10T14:29:06.972Z,45.10
2019-05-10T14:31:33.210Z,45.10
2019-05-10T14:34:14.832Z,45.10
2019-05-10T14:36:25.667Z,45.00
2019-05-10T14:38:53.910Z,45.00
2019-05-10T14:41:18.129Z,45.10
2019-05-10T14:43:44.369Z,45.10
2019-05-10T14:46:13.743Z,45.20
2019-05-10T14:48:36.833Z,45.10
2019-05-10T14:51:10.595Z,45.20
2019-05-10T14:53:29.271Z,45.10
2019-05-10T14:55:55.493Z,45.20
2019-05-10T14:58:21.712Z,45.10
2019-05-10T15:00:47.941Z,45.10
2019-05-10T15:03:14.597Z,45.20
2019-05-10T15:05:40.825Z,45.20
2019-05-10T15:08:07.021Z,45.20
2019-05-10T15:10:39.249Z,45.20
2019-05-10T15:12:59.509Z,45.30
2019-05-10T15:15:31.075Z,45.20
2019-05-10T15:17:55.122Z,45.10
2019-05-10T15:20:18.178Z,45.10
2019-05-10T15:22:44.395Z,45.30
2019-05-10T15:25:10.645Z,45.20
2019-05-10T15:27:36.880Z,45.10
2019-05-10T15:30:08.064Z,45.00
2019-05-10T15:32:29.316Z,45.10
2019-05-10T15:35:06.190Z,45.10
2019-05-10T15:37:21.781Z,45.10
2019-05-10T15:39:47.996Z,45.00
2019-05-10T15:42:14.268Z,45.10
2019-05-10T15:44:40.463Z,45.10
2019-05-10T15:47:07.232Z,45.10
2019-05-10T15:49:32.910Z,45.10
2019-05-10T15:52:16.430Z,45.10
2019-05-10T15:54:25.348Z,45.10
2019-05-10T15:56:55.225Z,45.20
2019-05-10T15:59:19.314Z,45.20
2019-05-10T16:01:45.636Z,45.00
2019-05-10T16:04:10.277Z,45.20
2019-05-10T16:06:37.739Z,45.10
2019-05-10T16:09:10.999Z,45.10
2019-05-10T16:11:28.974Z,45.80
2019-05-10T16:14:00.048Z,45.30
2019-05-10T16:16:21.433Z,45.40
2019-05-10T16:18:47.636Z,45.40
2019-05-10T16:21:15.121Z,45.40
2019-05-10T16:23:41.324Z,45.30
2019-05-10T16:26:06.348Z,45.20
2019-05-10T16:28:32.556Z,45.20
2019-05-10T16:30:58.792Z,45.20
2019-05-10T16:33:25.013Z,45.30
2019-05-10T16:35:52.103Z,45.30
2019-05-10T16:38:17.505Z,45.50
2019-05-10T16:40:44.566Z,45.40
2019-05-10T16:43:13.883Z,45.30
2019-05-10T16:45:36.590Z,45.30
2019-05-10T16:48:05.610Z,45.20
2019-05-10T16:50:31.718Z,45.10
2019-05-10T16:52:59.306Z,45.20
2019-05-10T16:55:21.486Z,45.30
2019-05-10T16:57:47.715Z,45.30
2019-05-10T17:00:13.956Z,45.20
2019-05-10T17:02:42.076Z,45.00
2019-05-10T17:05:09.769Z,45.00
2019-05-10T17:07:32.625Z,45.10
2019-05-10T17:09:58.853Z,45.10
2019-05-10T17:12:27.503Z,45.10
2019-05-10T17:14:56.363Z,45.30
2019-05-10T17:17:17.532Z,46.00
2019-05-10T17:19:43.768Z,45.20
2019-05-10T17:22:09.988Z,45.40
2019-05-10T17:24:36.227Z,45.40
2019-05-10T17:27:02.445Z,45.40
2019-05-10T17:29:28.600Z,45.40
2019-05-10T17:31:54.760Z,45.50
2019-05-10T17:34:28.974Z,45.50
2019-05-10T17:36:51.916Z,45.50
2019-05-10T17:39:13.595Z,45.50
2019-05-10T17:41:39.822Z,45.40
2019-05-10T17:44:06.868Z,45.50
2019-05-10T17:46:34.328Z,45.50
2019-05-10T17:49:00.556Z,45.50
2019-05-10T17:51:26.783Z,45.50
2019-05-10T17:53:55.060Z,45.50
2019-05-10T17:56:19.250Z,45.50
2019-05-10T17:58:45.466Z,45.50
2019-05-10T18:01:11.692Z,45.50
2019-05-10T18:03:37.929Z,45.50
2019-05-10T18:06:04.151Z,45.60
2019-05-10T18:08:30.382Z,45.50
2019-05-10T18:10:57.255Z,46.20
2019-05-10T18:13:22.839Z,45.50
2019-05-10T18:15:49.069Z,45.60
2019-05-10T18:18:15.313Z,46.20
2019-05-10T18:20:44.051Z,45.50
2019-05-10T18:23:07.762Z,45.60
2019-05-10T18:25:33.997Z,45.50
2019-05-10T18:28:00.230Z,45.60
2019-05-10T18:30:26.444Z,45.60
2019-05-10T18:32:52.673Z,45.60
2019-05-10T18:35:18.892Z,45.60
2019-05-10T18:37:45.128Z,45.60
2019-05-10T18:40:11.391Z,45.60
2019-05-10T18:42:37.588Z,45.60
2019-05-10T18:45:03.808Z,45.60
2019-05-10T18:47:30.032Z,45.60
2019-05-10T18:49:56.285Z,45.60
2019-05-10T18:52:22.501Z,45.70
2019-05-10T18:54:48.725Z,45.70
2019-05-10T18:57:19.000Z,45.70
2019-05-10T18:59:45.526Z,45.70
2019-05-10T19:02:11.885Z,45.70
2019-05-10T19:04:33.676Z,45.70
2019-05-10T19:07:09.206Z,45.80
2019-05-10T19:09:26.110Z,45.70
2019-05-10T19:11:52.339Z,45.70
2019-05-10T19:14:18.548Z,45.80
2019-05-10T19:16:44.781Z,45.80
2019-05-10T19:19:11.023Z,45.80
2019-05-10T19:21:38.102Z,45.80
2019-05-10T19:24:03.486Z,45.80
2019-05-10T19:26:31.590Z,45.80
2019-05-10T19:28:59.080Z,45.80
2019-05-10T19:31:22.157Z,45.90
2019-05-10T19:33:48.386Z,45.80
2019-05-10T19:36:14.796Z,45.80
2019-05-10T19:38:40.850Z,45.80
2019-05-10T19:41:07.030Z,45.80
2019-05-10T19:43:33.302Z,45.80
2019-05-10T19:45:59.737Z,45.90
2019-05-10T19:48:29.211Z,45.90
2019-05-10T19:50:51.980Z,45.80
2019-05-10T19:53:18.213Z,45.90
2019-05-10T19:55:44.439Z,45.90
2019-05-10T19:58:10.681Z,45.90
2019-05-10T20:00:36.892Z,45.90
2019-05-10T20:03:03.152Z,45.90
2019-05-10T20:05:29.361Z,45.90
2019-05-10T20:07:55.596Z,45.90
2019-05-10T20:10:21.817Z,45.90
2019-05-10T20:12:48.041Z,45.90
2019-05-10T20:15:14.272Z,45.90
2019-05-10T20:17:40.603Z,45.90
2019-05-10T20:20:06.741Z,45.90
2019-05-10T20:22:35.945Z,45.90
2019-05-10T20:24:59.192Z,45.90
2019-05-10T20:27:25.421Z,45.90
2019-05-10T20:29:51.651Z,45.90
2019-05-10T20:32:17.873Z,45.90
2019-05-10T20:34:44.115Z,45.90
2019-05-10T20:37:10.351Z,45.90
2019-05-10T20:39:36.591Z,45.90
2019-05-10T20:42:02.808Z,45.90
2019-05-10T20:44:29.024Z,45.90
2019-05-10T20:46:55.236Z,45.90
2019-05-10T20:49:21.583Z,45.90
2019-05-10T20:51:47.712Z,45.90
2019-05-10T20:54:13.936Z,45.90
2019-05-10T20:56:40.161Z,45.80
2019-05-10T20:59:06.397Z,45.90
2019-05-10T21:01:32.621Z,45.90
2019-05-10T21:03:58.848Z,45.80
2019-05-10T21:06:25.072Z,45.90
2019-05-10T21:08:51.226Z,45.90
2019-05-10T21:11:17.524Z,45.90
2019-05-10T21:13:43.769Z,45.90
2019-05-10T21:16:10.013Z,45.90
2019-05-10T21:18:36.226Z,45.90
2019-05-10T21:21:02.450Z,45.90
2019-05-10T21:23:28.692Z,46.60
2019-05-10T21:25:54.907Z,45.80
2019-05-10T21:28:21.129Z,46.50
2019-05-10T21:30:47.356Z,45.90
2019-05-10T21:33:13.595Z,45.80
2019-05-10T21:35:39.872Z,45.80
2019-05-10T21:38:06.125Z,45.90
2019-05-10T21:40:32.736Z,45.80
2019-05-10T21:42:58.930Z,45.80
2019-05-10T21:45:25.606Z,45.80
2019-05-10T21:47:52.152Z,45.80
2019-05-10T21:50:18.065Z,45.80
2019-05-10T21:52:44.239Z,45.60
2019-05-10T21:55:10.511Z,45.70
2019-05-10T21:57:36.688Z,45.70
2019-05-10T22:00:02.926Z,45.50
2019-05-10T22:02:29.176Z,45.70
2019-05-10T22:04:55.402Z,45.60
2019-05-10T22:07:21.661Z,45.70
2019-05-10T22:09:48.302Z,45.70
2019-05-10T22:12:14.530Z,45.70
2019-05-10T22:14:40.760Z,45.80
2019-05-10T22:17:06.997Z,45.80
2019-05-10T22:19:33.625Z,45.80
2019-05-10T22:21:59.899Z,45.70
2019-05-10T22:24:26.477Z,45.80
2019-05-10T22:26:52.704Z,45.70
2019-05-10T22:29:18.932Z,45.50
2019-05-10T22:31:45.171Z,45.80
2019-05-10T22:34:11.414Z,45.70
2019-05-10T22:36:37.642Z,45.80
2019-05-10T22:39:07.360Z,45.70
2019-05-10T22:41:30.910Z,45.70
2019-05-10T22:43:57.144Z,45.70
2019-05-10T22:46:23.377Z,45.80
2019-05-10T22:48:50.012Z,45.80
2019-05-10T22:51:16.246Z,45.70
2019-05-10T22:53:42.866Z,45.80
2019-05-10T22:56:09.521Z,45.80
2019-05-10T22:58:36.151Z,45.80
2019-05-10T23:01:02.772Z,45.70
2019-05-10T23:03:29.008Z,45.70
2019-05-10T23:05:55.248Z,45.60
2019-05-10T23:08:21.506Z,45.60
2019-05-10T23:10:47.709Z,45.70
2019-05-10T23:13:13.938Z,45.60
2019-05-10T23:15:40.554Z,45.60
2019-05-10T23:18:06.791Z,45.70
2019-05-10T23:20:33.016Z,45.40
2019-05-10T23:22:59.674Z,45.70
2019-05-10T23:25:26.288Z,45.70
2019-05-10T23:27:52.522Z,45.60
2019-05-10T23:30:18.737Z,45.50
2019-05-10T23:32:44.987Z,45.70
2019-05-10T23:35:11.198Z,45.60
2019-05-10T23:37:37.441Z,45.70
2019-05-10T23:40:03.672Z,45.70
2019-05-10T23:42:30.294Z,45.70
2019-05-10T23:44:56.535Z,45.60
2019-05-10T23:47:23.182Z,45.70
2019-05-10T23:49:49.802Z,45.60
2019-05-10T23:52:16.026Z,45.70
2019-05-10T23:54:42.286Z,46.30
2019-05-10T23:57:08.909Z,46.10
2019-05-10T23:59:35.136Z,45.70
